Time;durP1;ratioP1;P1;durP2;ratioP2;P2;SDS_P1;SDS_P2;PMS_P1;PMS_P2;Temp;Humidity;BMP_temperature;BMP_pressure;BME280_temperature;BME280_humidity;BME280_pressure;Samples;Min_cycle;Max_cycle;Signal;HPM_P1;HPM_P2
2021/12/10 00:01:30;;;;;;;0.60;0.40;;;15.70;64.80;;;;;;5033468;28;20037;-24
2021/12/10 00:03:57;;;;;;;0.50;0.30;;;15.80;64.80;;;;;;5034193;28;20528;-23
2021/12/10 00:06:27;;;;;;;0.50;0.40;;;15.70;64.80;;;;;;5033678;28;20046;-25
2021/12/10 00:08:55;;;;;;;0.50;0.30;;;15.80;64.80;;;;;;5034441;28;20053;-24
2021/12/10 00:11:28;;;;;;;0.45;0.32;;;15.80;64.80;;;;;;5033694;28;20069;-23
2021/12/10 00:13:54;;;;;;;0.65;0.40;;;15.80;64.70;;;;;;5034314;28;20487;-23
2021/12/10 00:16:20;;;;;;;0.40;0.30;;;15.80;64.70;;;;;;5032088;28;20129;-26
2021/12/10 00:18:52;;;;;;;0.32;0.25;;;15.80;64.70;;;;;;5034010;28;20069;-23
2021/12/10 00:21:19;;;;;;;0.35;0.35;;;15.80;64.60;;;;;;5033498;28;20037;-22
2021/12/10 00:23:49;;;;;;;0.82;0.50;;;15.80;64.80;;;;;;5034015;28;20057;-24
2021/12/10 00:26:15;;;;;;;0.82;0.40;;;15.80;64.60;;;;;;5033736;28;20044;-25
2021/12/10 00:28:41;;;;;;;0.30;0.30;;;15.80;64.80;;;;;;5041698;28;20048;-20
2021/12/10 00:31:20;;;;;;;0.38;0.22;;;15.80;64.60;;;;;;5053260;28;20514;-26
2021/12/10 00:33:53;;;;;;;0.30;0.30;;;15.80;64.70;;;;;;5053790;28;20072;-27
2021/12/10 00:36:18;;;;;;;0.55;0.50;;;15.80;64.60;;;;;;5053386;28;20481;-24
2021/12/10 00:38:44;;;;;;;0.70;0.40;;;15.80;64.60;;;;;;5054112;28;20076;-26
2021/12/10 00:41:10;;;;;;;0.50;0.35;;;15.80;64.70;;;;;;5053318;28;20047;-22
2021/12/10 00:43:36;;;;;;;1.00;0.40;;;15.80;64.50;;;;;;5053953;28;20048;-27
2021/12/10 00:46:01;;;;;;;0.35;0.30;;;15.80;64.50;;;;;;5053911;28;20045;-24
2021/12/10 00:48:27;;;;;;;0.82;0.30;;;15.80;64.50;;;;;;5052975;28;20052;-26
2021/12/10 00:50:54;;;;;;;0.30;0.30;;;15.80;64.50;;;;;;5053744;28;20065;-24
2021/12/10 00:53:20;;;;;;;0.70;0.40;;;15.80;64.50;;;;;;5055458;28;20037;-26
2021/12/10 00:55:46;;;;;;;1.48;0.40;;;15.80;64.50;;;;;;5039992;28;20053;-27
2021/12/10 00:58:11;;;;;;;0.40;0.30;;;15.80;64.50;;;;;;5027400;28;20053;-29
2021/12/10 01:00:43;;;;;;;1.10;0.30;;;15.80;64.40;;;;;;5031200;28;20053;-24
2021/12/10 01:03:10;;;;;;;0.45;0.30;;;15.80;64.40;;;;;;5018397;28;20560;-25
2021/12/10 01:05:36;;;;;;;0.63;0.50;;;15.80;64.40;;;;;;5032004;28;20549;-26
2021/12/10 01:08:02;;;;;;;0.30;0.30;;;15.80;64.40;;;;;;5037341;28;20103;-26
2021/12/10 01:10:40;;;;;;;0.40;0.30;;;15.80;64.40;;;;;;5036954;28;20057;-26
2021/12/10 01:13:07;;;;;;;0.25;0.25;;;15.80;64.40;;;;;;5037338;28;20041;-22
2021/12/10 01:24:16;;;;;;;0.68;0.40;;;15.80;64.50;;;;;;5015900;28;20049;-25
2021/12/10 01:29:19;;;;;;;0.85;0.52;;;15.80;64.40;;;;;;5037168;28;20521;-22
2021/12/10 01:31:45;;;;;;;1.02;0.38;;;15.90;64.50;;;;;;5032951;28;20542;-24
2021/12/10 01:34:11;;;;;;;1.48;0.50;;;15.80;64.40;;;;;;5045028;28;20506;-27
2021/12/10 01:36:37;;;;;;;0.95;0.30;;;15.80;64.40;;;;;;5016481;28;20095;-26
2021/12/10 01:39:08;;;;;;;0.73;0.50;;;15.80;64.40;;;;;;5017978;28;20133;-26
2021/12/10 01:41:37;;;;;;;1.98;0.52;;;15.90;64.50;;;;;;5052336;28;20477;-26
2021/12/10 01:44:14;;;;;;;0.35;0.28;;;15.90;64.40;;;;;;5045969;28;20064;-23
2021/12/10 01:46:40;;;;;;;0.88;0.40;;;15.90;64.50;;;;;;5044956;28;20511;-28
2021/12/10 01:49:06;;;;;;;0.30;0.30;;;15.80;64.40;;;;;;5035156;28;20046;-24
2021/12/10 01:51:33;;;;;;;0.35;0.30;;;15.80;64.40;;;;;;5035573;28;20056;-26
2021/12/10 01:54:05;;;;;;;1.10;0.70;;;15.90;64.50;;;;;;5036497;28;20038;-23
2021/12/10 01:56:32;;;;;;;0.43;0.30;;;15.80;64.40;;;;;;5035453;28;20103;-27
2021/12/10 01:58:58;;;;;;;0.77;0.52;;;15.80;64.40;;;;;;5036114;28;20048;-24
2021/12/10 02:01:33;;;;;;;0.40;0.28;;;15.90;64.40;;;;;;5035803;28;20494;-26
2021/12/10 02:04:00;;;;;;;0.63;0.45;;;15.90;64.50;;;;;;5034831;28;20120;-26
2021/12/10 02:06:25;;;;;;;0.40;0.30;;;15.90;64.40;;;;;;5035157;28;20502;-25
2021/12/10 02:08:51;;;;;;;0.40;0.30;;;15.90;64.40;;;;;;5036170;28;20846;-26
2021/12/10 02:11:17;;;;;;;0.65;0.40;;;15.90;64.40;;;;;;5035296;28;20051;-28
2021/12/10 02:13:42;;;;;;;0.50;0.38;;;15.90;64.50;;;;;;5036234;28;20453;-22
2021/12/10 02:16:08;;;;;;;0.65;0.38;;;15.80;64.40;;;;;;5035796;28;20109;-25
2021/12/10 02:18:34;;;;;;;1.05;0.50;;;15.90;64.50;;;;;;5043178;28;20069;-22
2021/12/10 02:21:02;;;;;;;1.55;0.40;;;15.80;64.40;;;;;;5035871;28;20060;-28
2021/12/10 02:23:29;;;;;;;0.40;0.20;;;15.90;64.40;;;;;;5035247;28;20038;-23
2021/12/10 02:25:55;;;;;;;0.43;0.38;;;15.90;64.50;;;;;;5035703;28;20045;-23
2021/12/10 02:28:21;;;;;;;0.30;0.30;;;15.90;64.50;;;;;;5041239;28;20531;-28
2021/12/10 02:30:48;;;;;;;0.50;0.40;;;15.80;64.40;;;;;;5075862;28;20048;-23
2021/12/10 02:33:14;;;;;;;0.65;0.50;;;15.80;64.50;;;;;;5074755;28;20044;-25
2021/12/10 02:35:40;;;;;;;0.60;0.40;;;15.90;64.50;;;;;;5075184;28;20047;-21
2021/12/10 02:38:05;;;;;;;0.50;0.30;;;15.90;64.50;;;;;;5075192;28;20041;-23
2021/12/10 02:40:31;;;;;;;0.95;0.40;;;15.90;64.50;;;;;;5075110;28;20046;-24
2021/12/10 02:42:58;;;;;;;0.50;0.40;;;15.90;64.50;;;;;;5075292;28;20048;-22
2021/12/10 02:45:24;;;;;;;0.90;0.30;;;15.90;64.60;;;;;;5074466;28;20127;-31
2021/12/10 02:47:49;;;;;;;0.65;0.30;;;15.90;64.50;;;;;;5074835;28;20041;-28
2021/12/10 02:50:17;;;;;;;1.08;0.30;;;15.90;64.60;;;;;;5074390;28;20044;-23
2021/12/10 02:52:43;;;;;;;0.30;0.30;;;15.90;64.60;;;;;;5075378;28;20501;-21
2021/12/10 02:55:10;;;;;;;0.30;0.20;;;15.90;64.50;;;;;;5059795;28;20049;-24
2021/12/10 02:57:37;;;;;;;0.22;0.22;;;15.90;64.50;;;;;;5019012;28;20042;-29
2021/12/10 03:00:06;;;;;;;0.40;0.20;;;15.90;64.50;;;;;;5035123;28;20077;-24
2021/12/10 03:02:32;;;;;;;0.43;0.20;;;15.90;64.50;;;;;;5042797;28;20124;-21
2021/12/10 03:04:57;;;;;;;0.80;0.40;;;15.90;64.50;;;;;;5041011;28;20063;-27
2021/12/10 03:07:23;;;;;;;0.30;0.30;;;15.90;64.50;;;;;;5037566;28;20041;-23
2021/12/10 03:09:50;;;;;;;0.40;0.17;;;15.90;64.50;;;;;;5042185;28;20419;-26
2021/12/10 03:12:16;;;;;;;0.45;0.35;;;15.90;64.50;;;;;;5042822;28;20056;-28
2021/12/10 03:14:45;;;;;;;0.93;0.20;;;15.90;64.50;;;;;;5043339;28;20041;-25
2021/12/10 03:17:14;;;;;;;0.45;0.40;;;15.90;64.50;;;;;;5042042;28;20037;-26
2021/12/10 03:19:39;;;;;;;0.25;0.25;;;15.90;64.50;;;;;;5042266;28;20037;-27
2021/12/10 03:22:06;;;;;;;0.80;0.35;;;15.90;64.50;;;;;;5041850;28;20044;-28
2021/12/10 03:24:32;;;;;;;0.55;0.55;;;15.90;64.40;;;;;;5037596;28;20143;-24
2021/12/10 03:26:58;;;;;;;0.40;0.28;;;15.90;64.40;;;;;;5040174;28;20069;-22
2021/12/10 03:29:25;;;;;;;0.50;0.38;;;15.90;64.40;;;;;;5052823;28;20044;-22
2021/12/10 03:31:52;;;;;;;0.65;0.30;;;15.90;64.50;;;;;;5074803;28;20087;-24
2021/12/10 03:34:18;;;;;;;0.50;0.43;;;15.90;64.30;;;;;;5073632;28;20413;-22
2021/12/10 03:36:46;;;;;;;0.95;0.40;;;15.90;64.30;;;;;;5074303;28;20177;-28
2021/12/10 03:39:15;;;;;;;0.30;0.30;;;15.90;64.30;;;;;;5074434;28;20037;-21
2021/12/10 03:41:41;;;;;;;0.30;0.20;;;15.90;64.40;;;;;;5054148;28;20044;-22
2021/12/10 03:44:06;;;;;;;0.40;0.25;;;15.80;64.30;;;;;;5054647;28;20044;-26
2021/12/10 03:46:32;;;;;;;1.92;0.30;;;15.90;64.40;;;;;;5053547;28;20045;-26
2021/12/10 03:49:03;;;;;;;0.90;0.30;;;15.90;64.40;;;;;;5054090;28;20045;-24
2021/12/10 03:51:28;;;;;;;0.45;0.30;;;15.90;64.30;;;;;;5053973;28;20053;-25
2021/12/10 03:53:54;;;;;;;0.60;0.35;;;15.90;64.40;;;;;;5054368;28;20037;-27
2021/12/10 03:56:21;;;;;;;0.75;0.32;;;15.90;64.20;;;;;;5033717;28;20095;-21
2021/12/10 03:58:47;;;;;;;0.32;0.30;;;15.90;64.30;;;;;;5034471;28;20049;-23
2021/12/10 04:01:14;;;;;;;0.30;0.15;;;15.90;64.30;;;;;;5034496;28;20045;-24
2021/12/10 04:03:40;;;;;;;0.47;0.30;;;15.90;64.20;;;;;;5033719;28;20042;-24
2021/12/10 04:06:05;;;;;;;0.30;0.20;;;15.90;64.20;;;;;;5034494;28;20103;-26
2021/12/10 04:08:31;;;;;;;1.05;0.20;;;15.90;64.30;;;;;;5033386;28;20101;-27
2021/12/10 04:10:58;;;;;;;0.50;0.35;;;15.90;64.30;;;;;;5034474;28;20045;-26
2021/12/10 04:13:23;;;;;;;0.57;0.30;;;15.90;64.30;;;;;;5033885;28;20037;-24
2021/12/10 04:15:49;;;;;;;0.32;0.28;;;15.90;64.30;;;;;;5034438;28;20400;-25
2021/12/10 04:18:15;;;;;;;0.47;0.32;;;15.90;64.30;;;;;;5033839;28;20144;-25
2021/12/10 04:20:41;;;;;;;0.30;0.20;;;15.90;64.40;;;;;;5033583;28;20096;-22
2021/12/10 04:23:08;;;;;;;0.68;0.30;;;15.90;64.30;;;;;;5034184;28;20685;-24
2021/12/10 04:25:33;;;;;;;0.40;0.20;;;15.90;64.30;;;;;;5033666;28;20049;-26
2021/12/10 04:28:01;;;;;;;0.40;0.30;;;15.90;64.20;;;;;;5037307;28;20069;-21
2021/12/10 04:30:27;;;;;;;0.30;0.20;;;15.90;64.30;;;;;;5057457;28;20051;-20
2021/12/10 04:32:53;;;;;;;0.30;0.30;;;15.90;64.30;;;;;;5058177;28;20037;-27
2021/12/10 04:35:19;;;;;;;0.45;0.20;;;15.90;64.20;;;;;;5057669;28;20521;-26
2021/12/10 04:37:49;;;;;;;0.60;0.40;;;15.90;64.20;;;;;;5056758;28;20528;-26
2021/12/10 04:40:17;;;;;;;0.25;0.25;;;15.90;64.30;;;;;;5058024;28;20045;-20
2021/12/10 04:42:43;;;;;;;0.32;0.20;;;15.90;64.20;;;;;;5057156;28;20136;-25
2021/12/10 04:45:09;;;;;;;0.40;0.40;;;15.90;64.20;;;;;;5057763;28;20084;-31
2021/12/10 04:47:35;;;;;;;0.40;0.20;;;15.90;64.10;;;;;;5056366;28;20072;-23
2021/12/10 04:50:02;;;;;;;0.63;0.32;;;15.90;64.20;;;;;;5033378;28;20064;-26
2021/12/10 04:52:28;;;;;;;0.43;0.30;;;15.90;64.20;;;;;;5023935;28;20644;-26
2021/12/10 04:54:53;;;;;;;1.08;0.43;;;15.90;64.10;;;;;;5029576;28;20050;-23
2021/12/10 04:57:20;;;;;;;0.43;0.20;;;16.00;64.20;;;;;;5016679;28;20103;-23
2021/12/10 04:59:46;;;;;;;0.60;0.30;;;15.90;64.20;;;;;;5018130;28;20045;-23
2021/12/10 05:02:13;;;;;;;0.60;0.38;;;15.90;64.10;;;;;;5017819;28;20050;-23
2021/12/10 05:04:39;;;;;;;0.30;0.30;;;15.90;64.20;;;;;;5016785;28;20038;-23
2021/12/10 05:07:05;;;;;;;0.28;0.20;;;15.90;64.20;;;;;;5017574;28;20045;-28
2021/12/10 05:09:31;;;;;;;0.50;0.30;;;15.90;64.10;;;;;;5016967;28;20530;-24
2021/12/10 05:11:57;;;;;;;0.30;0.20;;;15.90;64.10;;;;;;5017771;28;20046;-27
2021/12/10 05:14:23;;;;;;;0.90;0.38;;;15.90;64.10;;;;;;5017007;28;20096;-26
2021/12/10 05:16:49;;;;;;;0.28;0.22;;;15.90;64.10;;;;;;5017507;28;20061;-24
2021/12/10 05:19:16;;;;;;;0.95;0.30;;;15.90;64.10;;;;;;5036838;28;20497;-23
2021/12/10 05:21:43;;;;;;;1.40;0.13;;;15.90;64.10;;;;;;5036743;28;20062;-22
2021/12/10 05:24:09;;;;;;;0.45;0.20;;;15.90;64.10;;;;;;5037165;28;20713;-21
2021/12/10 05:26:35;;;;;;;0.40;0.32;;;15.90;64.00;;;;;;5036501;28;20072;-23
2021/12/10 05:29:00;;;;;;;0.38;0.15;;;15.90;64.00;;;;;;5046919;28;20955;-26
2021/12/10 05:31:26;;;;;;;0.50;0.30;;;15.90;64.10;;;;;;5056293;28;20083;-25
2021/12/10 05:33:52;;;;;;;0.30;0.30;;;15.90;64.00;;;;;;5056782;28;20120;-23
2021/12/10 05:36:17;;;;;;;0.25;0.20;;;15.90;64.10;;;;;;5056745;28;20077;-23
2021/12/10 05:38:43;;;;;;;0.35;0.20;;;15.90;64.00;;;;;;5055708;28;20060;-22
2021/12/10 05:41:10;;;;;;;0.30;0.20;;;15.90;64.00;;;;;;5056798;28;20052;-23
2021/12/10 05:43:37;;;;;;;0.30;0.30;;;15.90;64.00;;;;;;5056135;28;20561;-23
2021/12/10 05:46:02;;;;;;;0.45;0.25;;;15.90;64.00;;;;;;5056797;28;20045;-27
2021/12/10 05:48:28;;;;;;;0.30;0.28;;;15.90;63.90;;;;;;5055301;28;20049;-22
2021/12/10 05:50:53;;;;;;;0.40;0.30;;;15.90;64.00;;;;;;5056643;28;20517;-26
2021/12/10 05:53:19;;;;;;;0.30;0.20;;;15.90;64.00;;;;;;5056600;28;20068;-26
2021/12/10 05:55:45;;;;;;;0.47;0.20;;;15.90;63.90;;;;;;5040213;28;20041;-23
2021/12/10 05:58:11;;;;;;;0.28;0.28;;;16.00;64.00;;;;;;5036200;28;20052;-24
2021/12/10 06:00:40;;;;;;;0.30;0.17;;;15.90;64.60;;;;;;5035908;28;20048;-23
2021/12/10 06:03:06;;;;;;;0.35;0.20;;;16.00;63.90;;;;;;5036243;28;20045;-23
2021/12/10 06:05:33;;;;;;;0.40;0.30;;;16.00;63.90;;;;;;5035829;28;20045;-21
2021/12/10 06:07:59;;;;;;;0.40;0.20;;;15.90;63.90;;;;;;5036094;28;20041;-26
2021/12/10 06:10:25;;;;;;;0.68;0.38;;;15.90;63.90;;;;;;5035578;28;20056;-28
2021/12/10 06:12:50;;;;;;;0.70;0.40;;;15.90;64.00;;;;;;5033126;28;20143;-21
2021/12/10 06:15:17;;;;;;;0.25;0.25;;;15.90;63.90;;;;;;5024248;28;20046;-22
2021/12/10 06:17:43;;;;;;;0.63;0.40;;;15.90;64.70;;;;;;5030483;28;20088;-26
2021/12/10 06:20:10;;;;;;;0.65;0.30;;;16.00;64.00;;;;;;5035538;28;20053;-27
2021/12/10 06:22:36;;;;;;;0.70;0.30;;;16.00;63.80;;;;;;5035467;28;20091;-23
2021/12/10 06:25:02;;;;;;;0.30;0.20;;;16.00;63.80;;;;;;5036035;28;20045;-24
2021/12/10 06:27:28;;;;;;;0.30;0.30;;;16.00;63.90;;;;;;5033936;28;20045;-23
2021/12/10 06:29:53;;;;;;;0.30;0.22;;;15.90;64.00;;;;;;5053002;28;20087;-24
2021/12/10 06:32:19;;;;;;;0.50;0.20;;;16.00;64.00;;;;;;5055700;28;20044;-21
2021/12/10 06:34:44;;;;;;;0.45;0.28;;;16.00;64.10;;;;;;5054867;28;20045;-24
2021/12/10 06:37:10;;;;;;;0.65;0.40;;;16.00;64.40;;;;;;5055367;28;20052;-22
2021/12/10 06:39:36;;;;;;;0.30;0.20;;;16.00;64.30;;;;;;5053281;28;20068;-27
2021/12/10 06:42:02;;;;;;;0.35;0.25;;;16.00;64.40;;;;;;5055520;28;20071;-23
2021/12/10 06:44:28;;;;;;;0.30;0.20;;;16.00;64.30;;;;;;5055024;28;20051;-22
2021/12/10 06:46:54;;;;;;;0.47;0.35;;;16.00;64.40;;;;;;5055368;28;20053;-27
2021/12/10 06:49:20;;;;;;;0.32;0.20;;;16.00;64.40;;;;;;5054635;28;20640;-24
2021/12/10 06:51:45;;;;;;;0.28;0.22;;;16.00;64.40;;;;;;5054288;28;20103;-24
2021/12/10 06:54:11;;;;;;;0.82;0.40;;;16.00;64.50;;;;;;5052769;28;20087;-21
2021/12/10 06:56:37;;;;;;;1.67;0.20;;;16.00;64.60;;;;;;5034738;28;20041;-25
2021/12/10 06:59:05;;;;;;;0.20;0.20;;;16.00;64.50;;;;;;5035259;28;20389;-23
2021/12/10 07:01:33;;;;;;;0.20;0.10;;;16.00;64.50;;;;;;5034527;28;20111;-24
2021/12/10 07:03:59;;;;;;;0.32;0.30;;;16.00;64.40;;;;;;5035114;28;20064;-23
2021/12/10 07:06:25;;;;;;;0.50;0.30;;;15.90;64.50;;;;;;5035341;28;20665;-23
2021/12/10 07:08:51;;;;;;;0.30;0.30;;;16.00;64.40;;;;;;5033237;28;20037;-20
2021/12/10 07:11:18;;;;;;;0.38;0.20;;;15.90;64.40;;;;;;5034789;28;20049;-22
2021/12/10 07:13:48;;;;;;;0.20;0.10;;;15.90;65.20;;;;;;5034642;28;20045;-24
2021/12/10 07:16:14;;;;;;;0.93;0.40;;;15.90;64.40;;;;;;5035101;28;20490;-23
2021/12/10 07:18:40;;;;;;;0.30;0.17;;;15.90;64.30;;;;;;5033994;28;20041;-24
2021/12/10 07:21:06;;;;;;;0.40;0.20;;;15.90;64.30;;;;;;5034681;28;20053;-26
2021/12/10 07:23:31;;;;;;;0.30;0.20;;;15.90;64.30;;;;;;5034233;28;20081;-26
2021/12/10 07:25:57;;;;;;;1.33;0.30;;;15.90;64.30;;;;;;5035040;28;20045;-26
2021/12/10 07:28:22;;;;;;;1.60;0.30;;;15.90;64.30;;;;;;5039744;28;20040;-22
2021/12/10 07:30:49;;;;;;;0.30;0.25;;;15.90;64.40;;;;;;5053977;28;21570;-32
2021/12/10 07:33:16;;;;;;;0.70;0.25;;;15.90;64.30;;;;;;5054819;28;20459;-27
2021/12/10 07:35:42;;;;;;;0.55;0.40;;;15.80;64.30;;;;;;5053768;28;20045;-29
2021/12/10 07:38:09;;;;;;;0.20;0.20;;;15.90;64.20;;;;;;5054328;28;20059;-21
2021/12/10 07:40:36;;;;;;;0.32;0.20;;;15.90;64.20;;;;;;5053934;28;20554;-24
2021/12/10 07:43:02;;;;;;;0.10;0.10;;;15.90;64.20;;;;;;5054298;28;20037;-25
2021/12/10 07:45:28;;;;;;;0.52;0.30;;;15.90;64.20;;;;;;5053332;28;20536;-25
2021/12/10 07:47:55;;;;;;;0.30;0.25;;;15.90;64.10;;;;;;5028020;28;20077;-23
2021/12/10 07:50:30;;;;;;;0.32;0.20;;;15.90;64.20;;;;;;5013344;28;20057;-22
2021/12/10 07:52:56;;;;;;;0.30;0.20;;;15.90;64.20;;;;;;5014462;28;20073;-23
2021/12/10 07:55:24;;;;;;;0.30;0.20;;;15.90;64.20;;;;;;5025717;28;20055;-21
2021/12/10 07:57:51;;;;;;;0.32;0.28;;;15.90;64.20;;;;;;5031895;28;20037;-24
2021/12/10 08:00:17;;;;;;;0.43;0.22;;;15.90;64.30;;;;;;5033678;28;20052;-24
2021/12/10 08:02:43;;;;;;;0.43;0.20;;;15.80;64.30;;;;;;5047620;28;20459;-27
2021/12/10 08:05:08;;;;;;;0.20;0.20;;;15.80;64.20;;;;;;5058742;28;20059;-28
2021/12/10 08:07:34;;;;;;;0.63;0.30;;;15.90;64.30;;;;;;5040721;28;20046;-27
2021/12/10 08:10:00;;;;;;;0.40;0.20;;;15.90;64.20;;;;;;5036370;28;20409;-21
2021/12/10 08:12:25;;;;;;;0.40;0.30;;;15.90;64.20;;;;;;5038972;28;20049;-24
2021/12/10 08:14:52;;;;;;;0.30;0.15;;;15.90;64.20;;;;;;5038096;28;20097;-21
2021/12/10 08:17:21;;;;;;;0.40;0.20;;;15.90;64.20;;;;;;5038292;28;20041;-26
2021/12/10 08:19:48;;;;;;;0.20;0.20;;;15.90;64.10;;;;;;5043073;28;20048;-24
2021/12/10 08:22:14;;;;;;;0.10;0.10;;;15.90;64.10;;;;;;5043891;28;20042;-27
2021/12/10 08:24:41;;;;;;;0.60;0.30;;;15.90;64.00;;;;;;5034246;28;20046;-29
2021/12/10 08:27:07;;;;;;;0.20;0.10;;;15.90;64.10;;;;;;5049777;28;20139;-25
2021/12/10 08:29:32;;;;;;;0.30;0.15;;;15.90;64.00;;;;;;5038767;28;20068;-32
2021/12/10 08:31:58;;;;;;;0.38;0.15;;;15.90;63.90;;;;;;5045481;28;20045;-24
2021/12/10 08:34:24;;;;;;;0.20;0.13;;;15.90;63.90;;;;;;5041920;28;20069;-24
2021/12/10 08:36:49;;;;;;;0.50;0.20;;;15.90;63.80;;;;;;5044881;28;20037;-25
2021/12/10 08:39:15;;;;;;;0.30;0.20;;;15.90;63.80;;;;;;5031628;28;20057;-26
2021/12/10 08:41:41;;;;;;;0.40;0.20;;;15.90;63.70;;;;;;5031344;28;20061;-22
2021/12/10 08:44:07;;;;;;;0.10;0.10;;;15.80;64.40;;;;;;5036593;28;20041;-21
2021/12/10 08:46:33;;;;;;;0.93;0.32;;;15.80;63.70;;;;;;5046735;28;20040;-24
2021/12/10 08:48:59;;;;;;;0.30;0.20;;;15.80;63.60;;;;;;5038344;28;20045;-23
2021/12/10 08:51:30;;;;;;;0.32;0.30;;;15.80;63.60;;;;;;5041417;28;20061;-24
2021/12/10 08:53:56;;;;;;;0.80;0.25;;;15.80;63.60;;;;;;5032159;28;20061;-27
2021/12/10 08:56:22;;;;;;;0.15;0.13;;;15.80;63.50;;;;;;5032597;28;20519;-21
2021/12/10 08:58:48;;;;;;;0.30;0.20;;;15.90;63.50;;;;;;5031411;28;20073;-26
2021/12/10 09:01:20;;;;;;;0.45;0.20;;;15.80;63.50;;;;;;5037272;28;20044;-23
2021/12/10 09:03:49;;;;;;;0.40;0.30;;;15.80;63.50;;;;;;5034572;28;20122;-26
2021/12/10 09:06:15;;;;;;;0.80;0.30;;;15.80;63.50;;;;;;5037563;28;20041;-23
2021/12/10 09:08:41;;;;;;;0.52;0.38;;;15.90;63.40;;;;;;5036628;28;20041;-25
2021/12/10 09:11:07;;;;;;;0.35;0.15;;;15.90;63.40;;;;;;5045779;28;20406;-22
2021/12/10 09:13:33;;;;;;;0.35;0.25;;;15.90;63.40;;;;;;5045047;28;20037;-22
2021/12/10 09:16:03;;;;;;;0.40;0.20;;;15.80;63.40;;;;;;5045162;28;20120;-26
2021/12/10 09:18:29;;;;;;;0.20;0.20;;;15.80;63.40;;;;;;5043554;28;20033;-30
2021/12/10 09:20:57;;;;;;;0.40;0.20;;;15.80;63.40;;;;;;5047326;28;20060;-21
2021/12/10 09:23:24;;;;;;;0.40;0.20;;;15.90;63.30;;;;;;5034673;28;20069;-25
2021/12/10 09:25:55;;;;;;;0.10;0.10;;;15.90;63.40;;;;;;5035885;28;20077;-28
2021/12/10 09:28:21;;;;;;;2.13;0.47;;;15.90;63.30;;;;;;5041593;28;20044;-25
2021/12/10 09:30:49;;;;;;;0.45;0.25;;;15.90;63.30;;;;;;5056519;28;20045;-28
2021/12/10 09:33:14;;;;;;;0.00;0.00;;;15.90;63.30;;;;;;5036132;28;20055;-27
2021/12/10 09:35:40;;;;;;;0.25;0.20;;;15.90;63.00;;;;;;5040418;28;20390;-26
2021/12/10 09:38:05;;;;;;;0.10;0.10;;;15.90;63.00;;;;;;5039022;28;20060;-28
2021/12/10 09:40:40;;;;;;;0.20;0.20;;;15.90;63.10;;;;;;5037241;28;20037;-21
2021/12/10 09:43:06;;;;;;;0.20;0.20;;;15.90;63.20;;;;;;5056520;28;20126;-22
2021/12/10 09:45:33;;;;;;;0.20;0.10;;;15.90;63.30;;;;;;5052586;28;20441;-22
2021/12/10 09:47:59;;;;;;;0.85;0.17;;;15.90;63.30;;;;;;5048842;28;20057;-22
2021/12/10 09:50:27;;;;;;;0.47;0.30;;;15.90;63.30;;;;;;5052268;28;20060;-26
2021/12/10 09:52:54;;;;;;;0.95;0.13;;;15.90;63.20;;;;;;5034604;28;20037;-22
2021/12/10 09:55:20;;;;;;;0.45;0.15;;;15.90;63.20;;;;;;5040869;28;20073;-23
2021/12/10 09:57:47;;;;;;;0.22;0.03;;;15.90;63.20;;;;;;5036911;28;20080;-25
2021/12/10 10:00:18;;;;;;;0.20;0.20;;;15.90;63.30;;;;;;5026919;28;20045;-24
2021/12/10 10:02:43;;;;;;;0.30;0.20;;;15.90;63.20;;;;;;5044402;28;20055;-30
2021/12/10 10:05:09;;;;;;;0.75;0.30;;;15.90;63.10;;;;;;5036531;28;20128;-27
2021/12/10 10:07:36;;;;;;;0.73;0.30;;;15.90;63.90;;;;;;5030546;28;20580;-22
2021/12/10 10:10:13;;;;;;;0.20;0.20;;;15.90;63.00;;;;;;5036886;28;20050;-24
2021/12/10 10:12:41;;;;;;;0.20;0.17;;;15.90;63.00;;;;;;5031959;28;20052;-26
2021/12/10 10:15:10;;;;;;;0.25;0.20;;;15.90;63.00;;;;;;5031761;28;20053;-31
2021/12/10 10:17:36;;;;;;;0.45;0.28;;;15.90;63.20;;;;;;5034554;28;20044;-22
2021/12/10 10:20:02;;;;;;;0.15;0.10;;;15.90;63.20;;;;;;5032233;28;20494;-25
2021/12/10 10:22:29;;;;;;;0.20;0.10;;;15.90;63.20;;;;;;5034753;28;20044;-24
2021/12/10 10:24:55;;;;;;;0.57;0.28;;;15.90;63.10;;;;;;5030950;28;20041;-28
2021/12/10 10:27:23;;;;;;;0.40;0.20;;;15.90;63.10;;;;;;5033076;28;20052;-27
2021/12/10 10:29:53;;;;;;;0.22;0.10;;;15.90;63.10;;;;;;5033462;28;20037;-28
2021/12/10 10:32:21;;;;;;;0.20;0.20;;;15.90;63.10;;;;;;5031663;28;20057;-28
2021/12/10 10:34:50;;;;;;;0.17;0.10;;;15.90;63.10;;;;;;5030268;28;20602;-27
2021/12/10 10:37:16;;;;;;;0.32;0.22;;;15.90;63.00;;;;;;5027958;28;20049;-24
2021/12/10 10:39:43;;;;;;;0.25;0.15;;;15.90;63.00;;;;;;5042550;28;20041;-28
2021/12/10 10:42:12;;;;;;;0.20;0.13;;;16.00;63.00;;;;;;5039133;28;20098;-30
2021/12/10 10:44:38;;;;;;;0.10;0.10;;;15.90;63.00;;;;;;5032429;28;20095;-26
2021/12/10 10:47:04;;;;;;;0.30;0.13;;;15.90;63.00;;;;;;5018366;28;20080;-29
2021/12/10 10:49:41;;;;;;;0.10;0.10;;;15.90;63.00;;;;;;5014994;28;20450;-25
2021/12/10 10:52:12;;;;;;;0.40;0.10;;;16.00;63.10;;;;;;5015619;28;20045;-26
2021/12/10 10:54:38;;;;;;;0.10;0.10;;;16.00;63.10;;;;;;5022043;28;20184;-27
2021/12/10 10:57:24;;;;;;;0.20;0.15;;;16.00;63.00;;;;;;5034804;28;20065;-26
2021/12/10 10:59:54;;;;;;;0.15;0.10;;;16.00;63.10;;;;;;5043110;28;20128;-22
2021/12/10 11:02:19;;;;;;;0.20;0.13;;;16.00;63.00;;;;;;5043551;28;20041;-24
2021/12/10 11:04:47;;;;;;;0.47;0.25;;;16.00;63.00;;;;;;5034667;28;20043;-24
2021/12/10 11:07:20;;;;;;;0.43;0.20;;;16.00;63.10;;;;;;5035707;28;20132;-23
2021/12/10 11:09:54;;;;;;;0.17;0.10;;;15.90;63.00;;;;;;5034481;28;20041;-26
2021/12/10 11:12:32;;;;;;;0.43;0.22;;;16.00;63.10;;;;;;5035583;28;20041;-26
2021/12/10 11:14:59;;;;;;;0.95;0.10;;;15.90;63.00;;;;;;5034615;28;20137;-27
2021/12/10 11:17:39;;;;;;;0.30;0.15;;;15.90;63.00;;;;;;5032230;28;20053;-27
2021/12/10 11:20:15;;;;;;;0.20;0.10;;;15.90;63.00;;;;;;5034315;28;20045;-27
2021/12/10 11:22:49;;;;;;;0.20;0.20;;;15.90;63.00;;;;;;5035230;28;20056;-28
2021/12/10 11:25:25;;;;;;;0.38;0.20;;;16.00;63.00;;;;;;5035000;28;20075;-27
2021/12/10 11:27:51;;;;;;;0.55;0.20;;;16.00;63.00;;;;;;5034145;28;20041;-26
2021/12/10 11:30:22;;;;;;;0.50;0.30;;;16.00;62.90;;;;;;5034985;28;20049;-24
2021/12/10 11:32:55;;;;;;;0.17;0.10;;;16.00;62.90;;;;;;5030372;28;20065;-27
2021/12/10 11:35:23;;;;;;;1.00;0.10;;;16.00;62.90;;;;;;5046529;28;20064;-23
2021/12/10 11:37:52;;;;;;;0.55;0.30;;;15.90;63.20;;;;;;4700659;28;10000371;-27
2021/12/10 11:40:24;;;;;;;3.30;0.68;;;15.90;63.30;;;;;;5050954;28;20686;-21
2021/12/10 11:42:56;;;;;;;1.77;0.20;;;16.00;63.40;;;;;;5050105;28;20048;-26
2021/12/10 11:45:31;;;;;;;2.10;0.30;;;16.00;63.30;;;;;;5046143;28;20051;-26
2021/12/10 11:48:06;;;;;;;0.40;0.40;;;16.00;63.50;;;;;;5048109;28;20049;-24
2021/12/10 11:50:31;;;;;;;1.35;0.28;;;16.00;63.60;;;;;;5048194;28;20048;-27
2021/12/10 11:53:06;;;;;;;1.10;0.55;;;16.00;63.70;;;;;;5049964;28;20629;-27
2021/12/10 11:55:33;;;;;;;0.98;0.52;;;16.00;64.00;;;;;;5043555;28;20048;-29
2021/12/10 11:57:59;;;;;;;0.70;0.60;;;16.00;63.90;;;;;;5049648;28;20047;-29
2021/12/10 12:00:27;;;;;;;2.72;0.90;;;16.00;65.10;;;;;;5016253;28;20045;-27
2021/12/10 12:02:58;;;;;;;0.82;0.75;;;16.10;64.60;;;;;;5024766;28;20041;-26
2021/12/10 12:05:26;;;;;;;1.00;1.00;;;16.10;64.60;;;;;;5035513;28;20052;-22
2021/12/10 12:07:53;;;;;;;3.67;1.20;;;16.10;64.80;;;;;;5020176;28;20044;-26
2021/12/10 12:10:36;;;;;;;1.90;0.88;;;16.10;65.00;;;;;;5027964;28;20053;-31
2021/12/10 12:15:47;;;;;;;1.63;0.77;;;16.10;64.90;;;;;;5030080;28;20085;-25
2021/12/10 12:18:25;;;;;;;2.78;1.00;;;16.10;64.80;;;;;;5031614;28;20644;-22
2021/12/10 12:20:55;;;;;;;1.08;0.90;;;16.10;64.80;;;;;;5043656;28;20064;-26
2021/12/10 12:26:37;;;;;;;1.75;0.82;;;16.20;64.70;;;;;;5023379;28;20651;-30
2021/12/10 12:29:10;;;;;;;1.38;0.63;;;16.20;64.50;;;;;;5015011;28;20092;-27
2021/12/10 12:31:38;;;;;;;1.55;0.98;;;16.20;64.40;;;;;;5034932;28;20059;-32
2021/12/10 12:34:21;;;;;;;1.23;0.85;;;16.20;64.30;;;;;;5027123;28;20045;-25
2021/12/10 12:37:00;;;;;;;1.40;0.75;;;16.20;64.40;;;;;;5027032;28;20054;-28
2021/12/10 12:39:36;;;;;;;0.60;0.50;;;16.20;64.40;;;;;;5023516;28;20068;-27
2021/12/10 12:42:04;;;;;;;0.80;0.60;;;16.20;64.20;;;;;;5026856;28;20033;-25
2021/12/10 12:44:35;;;;;;;0.98;0.60;;;16.20;64.10;;;;;;5034783;28;20041;-26
2021/12/10 12:47:26;;;;;;;0.60;0.55;;;16.20;64.10;;;;;;5029969;28;20101;-29
2021/12/10 12:49:56;;;;;;;0.77;0.50;;;16.20;64.10;;;;;;5037332;28;20046;-24
2021/12/10 12:52:29;;;;;;;4.65;1.75;;;16.20;64.90;;;;;;5037523;28;20069;-23
2021/12/10 12:55:19;;;;;;;1.08;0.60;;;16.20;64.10;;;;;;5021479;28;20064;-28
2021/12/10 12:57:58;;;;;;;1.67;0.65;;;16.20;64.10;;;;;;5053272;28;20072;-26
2021/12/10 13:00:31;;;;;;;1.17;0.70;;;16.10;64.00;;;;;;5035561;28;20132;-30
2021/12/10 13:03:00;;;;;;;0.98;0.65;;;16.10;64.00;;;;;;5036632;28;20473;-24
2021/12/10 13:06:02;;;;;;;1.40;0.65;;;16.10;63.90;;;;;;5054004;28;20049;-24